createdAt,value
2018-04-29T00:00:12.256Z,0.00
2018-04-29T00:01:12.283Z,0.00
2018-04-29T00:02:12.292Z,0.00
2018-04-29T00:03:12.313Z,0.00
2018-04-29T00:04:12.339Z,0.00
2018-04-29T00:05:12.346Z,0.00
2018-04-29T00:06:12.371Z,0.00
2018-04-29T00:07:12.386Z,0.00
2018-04-29T00:08:12.404Z,0.00
2018-04-29T00:09:12.419Z,0.00
2018-04-29T00:10:12.441Z,0.00
2018-04-29T00:11:12.461Z,0.00
2018-04-29T00:12:12.479Z,0.00
2018-04-29T00:13:12.495Z,0.00
2018-04-29T00:14:12.516Z,0.00
2018-04-29T00:15:12.532Z,0.00
2018-04-29T00:16:12.862Z,0.00
2018-04-29T00:17:12.571Z,0.00
2018-04-29T00:18:12.583Z,0.00
2018-04-29T00:19:12.601Z,0.00
2018-04-29T00:20:12.626Z,0.00
2018-04-29T00:21:12.635Z,0.00
2018-04-29T00:22:12.662Z,0.00
2018-04-29T00:23:12.669Z,0.00
2018-04-29T00:24:12.690Z,0.00
2018-04-29T00:25:12.714Z,0.00
2018-04-29T00:26:12.731Z,0.00
2018-04-29T00:27:12.741Z,0.00
2018-04-29T00:28:12.764Z,0.00
2018-04-29T00:29:12.781Z,0.00
2018-04-29T00:30:12.796Z,0.00
2018-04-29T00:31:12.816Z,0.00
2018-04-29T00:32:12.833Z,0.00
2018-04-29T00:33:12.850Z,0.00
2018-04-29T00:34:12.873Z,0.00
2018-04-29T00:35:12.889Z,0.00
2018-04-29T00:36:12.918Z,0.00
2018-04-29T00:37:12.922Z,0.00
2018-04-29T00:38:12.939Z,0.00
2018-04-29T00:39:12.965Z,0.00
2018-04-29T00:40:12.979Z,0.00
2018-04-29T00:41:13.001Z,0.00
2018-04-29T00:42:13.012Z,0.00
2018-04-29T00:43:13.039Z,0.00
2018-04-29T00:44:13.055Z,0.00
2018-04-29T00:45:13.067Z,0.00
2018-04-29T00:46:13.084Z,0.00
2018-04-29T00:47:13.101Z,0.00
2018-04-29T00:48:13.119Z,0.00
2018-04-29T00:49:13.158Z,0.00
2018-04-29T00:50:13.155Z,0.00
2018-04-29T00:51:13.173Z,0.00
2018-04-29T00:52:13.196Z,0.00
2018-04-29T00:53:13.263Z,0.00
2018-04-29T00:54:13.226Z,0.00
2018-04-29T00:55:13.253Z,0.00
2018-04-29T00:56:13.261Z,0.00
2018-04-29T00:57:13.279Z,0.00
2018-04-29T00:58:13.299Z,0.00
2018-04-29T00:59:13.318Z,0.00
2018-04-29T01:00:13.339Z,0.00
2018-04-29T01:01:13.352Z,0.00
2018-04-29T01:02:13.369Z,0.00
2018-04-29T01:03:13.394Z,0.00
2018-04-29T01:04:13.407Z,0.00
2018-04-29T01:05:13.425Z,0.00
2018-04-29T01:06:13.445Z,0.00
2018-04-29T01:07:13.460Z,0.00
2018-04-29T01:08:13.477Z,0.00
2018-04-29T01:09:13.493Z,0.00
2018-04-29T01:10:13.517Z,0.00
2018-04-29T01:11:13.534Z,0.00
2018-04-29T01:12:13.544Z,0.00
2018-04-29T01:13:13.563Z,0.00
2018-04-29T01:14:13.581Z,0.00
2018-04-29T01:15:13.604Z,0.00
2018-04-29T01:16:13.615Z,0.00
2018-04-29T01:17:13.631Z,0.00
2018-04-29T01:18:13.649Z,0.00
2018-04-29T01:19:13.677Z,0.00
2018-04-29T01:20:13.685Z,0.00
2018-04-29T01:21:13.702Z,0.00
2018-04-29T01:22:13.728Z,0.00
2018-04-29T01:23:13.746Z,0.00
2018-04-29T01:24:13.755Z,0.00
2018-04-29T01:25:13.770Z,0.00
2018-04-29T01:26:13.789Z,0.00
2018-04-29T01:27:13.812Z,0.00
2018-04-29T01:28:13.823Z,0.00
2018-04-29T01:29:13.839Z,0.00
2018-04-29T01:30:13.861Z,0.00
2018-04-29T01:31:13.878Z,0.00
2018-04-29T01:32:13.901Z,0.00
2018-04-29T01:33:13.909Z,0.00
2018-04-29T01:34:13.942Z,0.00
2018-04-29T01:35:13.954Z,0.00
2018-04-29T01:36:13.969Z,0.00
2018-04-29T01:37:13.984Z,0.00
2018-04-29T01:38:14.001Z,0.00
2018-04-29T01:39:14.016Z,0.00
2018-04-29T01:40:14.032Z,0.00
2018-04-29T01:41:14.054Z,0.00
2018-04-29T01:42:14.072Z,0.00
2018-04-29T01:43:14.084Z,0.00
2018-04-29T01:44:14.103Z,0.00
2018-04-29T01:45:14.143Z,0.00
2018-04-29T01:46:14.139Z,0.00
2018-04-29T01:47:14.157Z,0.00
2018-04-29T01:48:14.174Z,0.00
2018-04-29T03:48:39.131Z,0.00
2018-04-29T03:49:39.101Z,0.00
2018-04-29T03:51:32.011Z,0.00
2018-04-29T03:52:32.015Z,0.00
2018-04-29T03:54:24.990Z,0.00
2018-04-29T03:55:24.945Z,0.00
2018-04-29T03:57:17.855Z,0.00
2018-04-29T03:58:17.859Z,0.00
2018-04-29T04:00:10.807Z,0.00
2018-04-29T04:01:10.790Z,0.00
2018-04-29T04:03:03.707Z,0.00
2018-04-29T04:04:03.713Z,0.00
2018-04-29T04:05:56.646Z,0.00
2018-04-29T04:06:56.639Z,0.00
2018-04-29T04:08:49.586Z,0.00
2018-04-29T04:09:49.645Z,0.00
2018-04-29T04:11:42.486Z,5.63
2018-04-29T04:12:42.497Z,5.63
2018-04-29T04:14:35.475Z,5.63
2018-04-29T04:15:35.429Z,5.63
2018-04-29T04:17:28.350Z,5.63
2018-04-29T04:18:28.356Z,5.63
2018-04-29T04:20:21.308Z,5.63
2018-04-29T04:21:21.288Z,5.63
2018-04-29T04:23:14.207Z,5.63
2018-04-29T04:24:14.219Z,5.63
2018-04-29T04:26:07.158Z,11.25
2018-04-29T04:27:07.150Z,11.25
2018-04-29T04:29:00.086Z,16.88
2018-04-29T04:30:00.088Z,16.88
2018-04-29T04:31:53.036Z,22.50
2018-04-29T04:32:53.016Z,22.50
2018-04-29T04:34:45.964Z,22.50
2018-04-29T04:35:45.960Z,22.50
2018-04-29T04:37:38.878Z,22.50
2018-04-29T04:38:38.884Z,22.50
2018-04-29T04:40:31.829Z,22.50
2018-04-29T04:41:31.822Z,28.13
2018-04-29T04:43:24.750Z,28.13
2018-04-29T04:44:24.759Z,33.75
2018-04-29T04:46:17.707Z,33.75
2018-04-29T04:47:17.689Z,39.38
2018-04-29T04:49:10.610Z,33.75
2018-04-29T04:50:10.621Z,39.38
2018-04-29T04:52:03.608Z,39.38
2018-04-29T04:53:03.559Z,39.38
2018-04-29T04:54:56.503Z,39.38
2018-04-29T04:55:56.501Z,39.38
2018-04-29T04:57:49.418Z,45.00
2018-04-29T04:58:49.428Z,45.00
2018-04-29T05:00:42.375Z,45.00
2018-04-29T05:01:42.365Z,45.00
2018-04-29T05:03:35.304Z,45.00
2018-04-29T05:04:35.309Z,45.00
2018-04-29T05:06:28.643Z,50.63
2018-04-29T05:07:28.443Z,50.63
2018-04-29T05:09:21.168Z,56.25
2018-04-29T05:10:21.181Z,56.25
2018-04-29T05:12:14.129Z,56.25
2018-04-29T05:13:14.121Z,50.63
2018-04-29T05:15:07.068Z,50.63
2018-04-29T05:16:07.061Z,50.63
2018-04-29T05:17:59.985Z,56.25
2018-04-29T05:18:59.994Z,56.25
2018-04-29T05:20:52.953Z,67.50
2018-04-29T05:21:52.945Z,73.13
2018-04-29T05:23:45.859Z,78.75
2018-04-29T05:24:45.871Z,78.75
2018-04-29T05:26:38.823Z,73.13
2018-04-29T05:27:38.823Z,67.50
2018-04-29T05:29:31.742Z,56.25
2018-04-29T05:30:31.761Z,50.63
2018-04-29T05:32:24.702Z,45.00
2018-04-29T05:33:24.694Z,50.63
2018-04-29T05:35:17.696Z,50.63
2018-04-29T05:36:17.635Z,61.88
2018-04-29T05:38:10.560Z,84.38
2018-04-29T05:39:10.575Z,90.00
2018-04-29T05:41:03.523Z,101.25
2018-04-29T05:42:03.510Z,118.13
2018-04-29T05:43:56.438Z,135.00
2018-04-29T05:44:56.451Z,135.00
2018-04-29T05:46:49.392Z,118.13
2018-04-29T05:47:49.389Z,106.88
2018-04-29T05:49:42.316Z,78.75
2018-04-29T05:50:42.332Z,67.50
2018-04-29T05:52:35.277Z,56.25
2018-04-29T05:53:35.275Z,61.88
2018-04-29T05:55:28.225Z,67.50
2018-04-29T05:56:28.214Z,73.13
2018-04-29T05:58:21.140Z,67.50
2018-04-29T05:59:21.159Z,61.88
2018-04-29T06:01:14.108Z,50.63
2018-04-29T06:02:14.097Z,45.00
2018-04-29T06:04:07.028Z,45.00
2018-04-29T06:05:07.041Z,39.38
2018-04-29T06:06:59.983Z,39.38
2018-04-29T06:07:59.978Z,39.38
2018-04-29T06:09:52.905Z,45.00
2018-04-29T06:10:52.917Z,45.00
2018-04-29T06:12:45.872Z,45.00
2018-04-29T06:13:45.861Z,45.00
2018-04-29T06:15:38.809Z,45.00
2018-04-29T06:16:38.808Z,45.00
2018-04-29T06:18:31.733Z,45.00
2018-04-29T06:19:31.747Z,45.00
2018-04-29T06:21:24.695Z,45.00
2018-04-29T06:22:24.683Z,45.00
2018-04-29T06:24:17.619Z,45.00
2018-04-29T06:25:17.631Z,45.00
2018-04-29T06:27:10.587Z,39.38
2018-04-29T06:28:10.584Z,33.75
2018-04-29T06:30:03.505Z,33.75
2018-04-29T06:31:03.521Z,33.75
2018-04-29T06:32:56.467Z,28.13
2018-04-29T06:33:56.462Z,28.13
2018-04-29T06:35:49.410Z,22.50
2018-04-29T06:36:49.401Z,22.50
2018-04-29T06:38:42.351Z,22.50
2018-04-29T06:39:42.348Z,22.50
2018-04-29T06:41:35.291Z,16.88
2018-04-29T06:42:35.283Z,16.88
2018-04-29T06:44:28.215Z,16.88
2018-04-29T06:45:28.225Z,16.88
2018-04-29T06:47:21.171Z,16.88
2018-04-29T06:48:21.166Z,16.88
2018-04-29T06:50:14.098Z,16.88
2018-04-29T06:51:14.112Z,16.88
2018-04-29T06:53:07.059Z,22.50
2018-04-29T06:54:07.049Z,22.50
2018-04-29T06:55:59.994Z,28.13
2018-04-29T06:56:59.988Z,33.75
2018-04-29T06:58:52.925Z,39.38
2018-04-29T06:59:52.929Z,50.63
2018-04-29T07:01:45.877Z,50.63
2018-04-29T07:02:45.877Z,61.88
2018-04-29T07:04:38.796Z,56.25
2018-04-29T07:05:40.258Z,56.25
2018-04-29T07:07:31.833Z,61.88
2018-04-29T07:08:32.700Z,67.50
2018-04-29T07:10:24.757Z,67.50
2018-04-29T07:11:26.665Z,67.50
2018-04-29T07:13:17.815Z,45.00
2018-04-29T07:14:20.310Z,45.00
2018-04-29T07:16:12.600Z,56.25
2018-04-29T07:17:13.242Z,56.25
2018-04-29T07:19:03.624Z,56.25
2018-04-29T07:20:06.564Z,50.63
2018-04-29T07:21:56.659Z,50.63
2018-04-29T07:23:00.511Z,45.00
2018-04-29T07:24:51.467Z,45.00
2018-04-29T07:25:49.544Z,39.38
2018-04-29T07:27:43.563Z,50.63
2018-04-29T07:28:43.642Z,61.88
2018-04-29T07:30:35.472Z,73.13
2018-04-29T07:31:36.377Z,78.75
2018-04-29T07:33:28.435Z,90.00
2018-04-29T07:34:28.415Z,84.38
2018-04-29T07:36:21.380Z,84.38
2018-04-29T07:37:22.265Z,84.38
2018-04-29T07:39:14.850Z,67.50
2018-04-29T07:40:14.838Z,56.25
2018-04-29T07:42:07.798Z,39.38
2018-04-29T07:43:07.797Z,33.75
2018-04-29T07:45:01.675Z,28.13
2018-04-29T07:46:00.760Z,28.13
2018-04-29T07:47:53.797Z,16.88
2018-04-29T07:48:54.642Z,16.88
2018-04-29T07:50:46.753Z,16.88
2018-04-29T07:51:46.732Z,16.88
2018-04-29T07:53:40.553Z,11.25
2018-04-29T07:54:41.562Z,16.88
2018-04-29T07:56:34.524Z,22.50
2018-04-29T07:57:34.004Z,28.13
2018-04-29T07:59:28.540Z,28.13
2018-04-29T08:00:29.962Z,22.50
2018-04-29T08:02:22.955Z,16.88
2018-04-29T08:03:21.042Z,16.88
2018-04-29T08:05:14.013Z,22.50
2018-04-29T08:06:16.557Z,16.88
2018-04-29T08:08:08.888Z,16.88
2018-04-29T08:09:06.953Z,22.50
2018-04-29T08:11:01.949Z,28.13
2018-04-29T08:12:00.423Z,28.13
2018-04-29T08:13:59.302Z,39.38
2018-04-29T08:15:00.300Z,33.75
2018-04-29T08:16:52.363Z,28.13
2018-04-29T08:17:52.777Z,28.13
2018-04-29T08:19:46.834Z,33.75
2018-04-29T08:20:44.405Z,39.38
2018-04-29T08:22:40.486Z,56.25
2018-04-29T08:23:37.357Z,84.38
2018-04-29T08:25:32.240Z,123.75
2018-04-29T08:26:30.900Z,140.63
2018-04-29T08:28:25.720Z,95.63
2018-04-29T08:29:23.779Z,90.00
2018-04-29T08:31:17.312Z,90.00
2018-04-29T08:32:18.660Z,106.88
2018-04-29T08:34:10.297Z,84.38
2018-04-29T08:35:10.715Z,78.75
2018-04-29T08:37:03.765Z,73.13
2018-04-29T08:38:03.669Z,56.25
2018-04-29T08:39:58.072Z,45.00
2018-04-29T08:40:56.610Z,45.00
2018-04-29T08:42:49.645Z,50.63
2018-04-29T08:43:52.001Z,61.88
2018-04-29T08:45:44.491Z,56.25
2018-04-29T08:46:42.529Z,56.25
2018-04-29T08:48:37.465Z,73.13
2018-04-29T08:49:36.914Z,84.38
2018-04-29T08:51:30.376Z,101.25
2018-04-29T08:52:28.969Z,118.13
2018-04-29T08:54:22.517Z,174.38
2018-04-29T08:55:23.338Z,168.75
2018-04-29T08:57:15.384Z,140.63
2018-04-29T08:58:15.881Z,135.00
2018-04-29T09:00:08.444Z,95.63
2018-04-29T09:01:08.837Z,90.00
2018-04-29T09:03:02.549Z,112.50
2018-04-29T09:04:01.307Z,123.75
2018-04-29T09:05:54.257Z,157.50
2018-04-29T09:06:54.233Z,185.63
2018-04-29T09:08:47.797Z,230.63
2018-04-29T09:09:47.185Z,236.25
2018-04-29T09:11:41.075Z,264.38
2018-04-29T09:12:41.578Z,270.00
2018-04-29T09:14:34.027Z,292.50
2018-04-29T09:15:33.126Z,337.50
2018-04-29T09:17:26.586Z,315.00
2018-04-29T09:18:26.564Z,309.38
2018-04-29T09:20:19.035Z,331.88
2018-04-29T09:21:20.440Z,365.63
2018-04-29T09:23:12.888Z,326.25
2018-04-29T09:24:13.400Z,326.25
2018-04-29T09:26:07.983Z,247.50
2018-04-29T09:27:05.853Z,253.13
2018-04-29T09:28:59.308Z,303.75
2018-04-29T09:29:57.905Z,371.25
2018-04-29T09:31:51.364Z,247.50
2018-04-29T09:32:51.374Z,236.25
2018-04-29T09:34:44.321Z,247.50
2018-04-29T09:35:45.225Z,225.00
2018-04-29T09:37:37.276Z,196.88
2018-04-29T09:38:37.284Z,191.25
2018-04-29T09:40:32.176Z,146.25
2018-04-29T09:41:30.299Z,146.25
2018-04-29T09:43:25.244Z,151.88
2018-04-29T09:44:23.244Z,135.00
2018-04-29T09:46:16.128Z,151.88
2018-04-29T09:47:16.141Z,174.38
2018-04-29T09:49:09.102Z,213.75
2018-04-29T09:50:09.096Z,225.00
2018-04-29T09:52:02.033Z,236.25
2018-04-29T09:53:02.051Z,241.88
2018-04-29T09:54:55.001Z,247.50
2018-04-29T09:55:54.992Z,236.25
2018-04-29T09:57:47.929Z,208.13
2018-04-29T09:58:47.941Z,208.13
2018-04-29T10:00:40.909Z,225.00
2018-04-29T10:01:40.894Z,258.75
2018-04-29T10:03:33.850Z,292.50
2018-04-29T10:04:33.846Z,320.63
2018-04-29T10:06:26.789Z,230.63
2018-04-29T10:07:26.796Z,191.25
2018-04-29T10:09:19.750Z,129.38
2018-04-29T10:10:19.740Z,123.75
2018-04-29T10:12:12.674Z,123.75
2018-04-29T10:13:12.694Z,123.75
2018-04-29T10:15:05.644Z,118.13
2018-04-29T10:16:05.642Z,118.13
2018-04-29T10:17:58.573Z,112.50
2018-04-29T10:18:58.594Z,118.13
2018-04-29T10:20:51.541Z,123.75
2018-04-29T10:21:51.537Z,118.13
2018-04-29T10:23:44.489Z,112.50
2018-04-29T10:24:44.582Z,123.75
2018-04-29T10:26:37.416Z,151.88
2018-04-29T10:27:37.432Z,157.50
2018-04-29T10:29:30.386Z,151.88
2018-04-29T10:30:30.385Z,135.00
2018-04-29T10:32:23.340Z,123.75
2018-04-29T10:33:23.332Z,146.25
2018-04-29T10:35:16.305Z,253.13
2018-04-29T10:36:16.283Z,275.63
2018-04-29T10:38:09.220Z,253.13
2018-04-29T10:39:09.231Z,241.88
2018-04-29T10:41:02.245Z,253.13
2018-04-29T10:42:02.183Z,253.13
2018-04-29T10:43:55.134Z,253.13
2018-04-29T10:44:55.133Z,264.38
2018-04-29T10:46:48.069Z,264.38
2018-04-29T10:47:48.082Z,236.25
2018-04-29T10:49:41.037Z,230.63
2018-04-29T10:50:41.034Z,247.50
2018-04-29T10:52:34.016Z,230.63
2018-04-29T10:53:33.989Z,225.00
2018-04-29T10:55:26.936Z,219.38
2018-04-29T10:56:26.941Z,230.63
2018-04-29T10:58:19.869Z,236.25
2018-04-29T10:59:19.886Z,258.75
2018-04-29T11:01:12.847Z,320.63
2018-04-29T11:02:12.841Z,348.75
2018-04-29T11:04:05.795Z,309.38
2018-04-29T11:05:05.795Z,320.63
2018-04-29T11:06:58.733Z,202.50
2018-04-29T11:07:58.751Z,219.38
2018-04-29T11:09:51.703Z,196.88
2018-04-29T11:10:51.705Z,202.50
2018-04-29T11:12:44.639Z,219.38
2018-04-29T11:13:44.659Z,241.88
2018-04-29T11:15:37.620Z,213.75
2018-04-29T11:16:37.619Z,208.13
2018-04-29T11:18:30.553Z,191.25
2018-04-29T11:19:30.573Z,202.50
2018-04-29T11:21:23.525Z,191.25
2018-04-29T11:22:23.583Z,185.63
2018-04-29T11:24:16.497Z,196.88
2018-04-29T11:25:16.477Z,202.50
2018-04-29T11:27:09.411Z,185.63
2018-04-29T11:28:09.437Z,185.63
2018-04-29T11:30:02.399Z,174.38
2018-04-29T11:31:02.388Z,151.88
2018-04-29T11:32:55.332Z,123.75
2018-04-29T11:33:55.357Z,112.50
2018-04-29T11:35:48.299Z,101.25
2018-04-29T11:36:48.294Z,95.63
2018-04-29T11:38:41.230Z,101.25
2018-04-29T11:39:41.252Z,106.88
2018-04-29T11:41:34.202Z,140.63
2018-04-29T11:42:34.204Z,163.13
2018-04-29T11:44:27.165Z,185.63
2018-04-29T11:45:27.148Z,191.25
2018-04-29T11:47:20.087Z,180.00
2018-04-29T11:48:20.099Z,191.25
2018-04-29T11:50:13.052Z,202.50
2018-04-29T11:51:13.050Z,191.25
2018-04-29T11:53:05.992Z,180.00
2018-04-29T11:54:06.010Z,174.38
2018-04-29T11:55:58.959Z,202.50
2018-04-29T11:56:58.955Z,157.50
2018-04-29T11:58:51.894Z,157.50
2018-04-29T11:59:51.908Z,174.38
2018-04-29T12:01:44.869Z,315.00
2018-04-29T12:02:44.859Z,253.13
2018-04-29T12:04:37.803Z,281.25
2018-04-29T12:05:37.822Z,320.63
2018-04-29T12:07:30.773Z,360.00
2018-04-29T12:08:30.770Z,331.88
2018-04-29T12:10:23.728Z,331.88
2018-04-29T12:11:23.725Z,337.50
2018-04-29T12:13:16.667Z,270.00
2018-04-29T12:14:16.678Z,258.75
2018-04-29T12:16:09.634Z,247.50
2018-04-29T12:17:09.631Z,253.13
2018-04-29T12:19:02.570Z,196.88
2018-04-29T12:20:02.594Z,315.00
2018-04-29T12:21:55.543Z,309.38
2018-04-29T12:22:55.541Z,326.25
2018-04-29T12:24:48.475Z,196.88
2018-04-29T12:25:48.500Z,343.13
2018-04-29T12:27:41.471Z,320.63
2018-04-29T12:28:41.455Z,315.00
2018-04-29T12:30:34.418Z,281.25
2018-04-29T12:31:34.408Z,270.00
2018-04-29T12:33:27.354Z,247.50
2018-04-29T12:34:27.367Z,253.13
2018-04-29T12:36:20.325Z,253.13
2018-04-29T12:37:20.322Z,253.13
2018-04-29T12:39:13.265Z,258.75
2018-04-29T12:40:13.279Z,258.75
2018-04-29T12:42:06.238Z,264.38
2018-04-29T12:43:06.236Z,258.75
2018-04-29T12:44:59.180Z,253.13
2018-04-29T12:45:59.195Z,253.13
2018-04-29T12:47:52.149Z,230.63
2018-04-29T12:48:52.152Z,247.50
2018-04-29T12:50:45.106Z,151.88
2018-04-29T12:51:45.109Z,253.13
2018-04-29T12:53:38.043Z,118.13
2018-04-29T12:54:38.063Z,135.00
2018-04-29T12:56:31.025Z,264.38
2018-04-29T12:57:31.018Z,168.75
2018-04-29T12:59:23.956Z,151.88
2018-04-29T13:00:24.043Z,140.63
2018-04-29T13:02:16.930Z,241.88
2018-04-29T13:03:16.928Z,292.50
2018-04-29T13:05:09.863Z,247.50
2018-04-29T13:06:09.906Z,241.88
2018-04-29T13:08:02.841Z,236.25
2018-04-29T13:09:02.837Z,225.00
2018-04-29T13:10:55.794Z,236.25
2018-04-29T13:11:55.799Z,236.25
2018-04-29T13:13:48.731Z,241.88
2018-04-29T13:14:48.747Z,236.25
2018-04-29T13:16:41.704Z,258.75
2018-04-29T13:17:41.704Z,213.75
2018-04-29T13:19:34.646Z,196.88
2018-04-29T13:20:34.657Z,196.88
2018-04-29T13:22:27.615Z,241.88
2018-04-29T13:23:27.615Z,241.88
2018-04-29T13:25:20.557Z,225.00
2018-04-29T13:26:20.571Z,225.00
2018-04-29T13:28:13.527Z,219.38
2018-04-29T13:29:13.527Z,208.13
2018-04-29T13:31:06.492Z,225.00
2018-04-29T13:32:06.486Z,225.00
2018-04-29T13:33:59.421Z,219.38
2018-04-29T13:34:59.440Z,219.38
2018-04-29T13:36:52.404Z,225.00
2018-04-29T13:37:52.401Z,219.38
2018-04-29T13:39:45.343Z,225.00
2018-04-29T13:40:45.357Z,213.75
2018-04-29T13:42:38.316Z,219.38
2018-04-29T13:43:38.314Z,225.00
2018-04-29T13:45:31.270Z,157.50
2018-04-29T13:46:31.269Z,129.38
2018-04-29T13:47:31.302Z,106.88
2018-04-29T13:48:31.315Z,112.50
2018-04-29T13:49:31.345Z,123.75
2018-04-29T13:50:31.369Z,123.75
2018-04-29T13:51:31.394Z,118.13
2018-04-29T13:52:31.412Z,101.25
2018-04-29T13:53:31.436Z,95.63
2018-04-29T13:54:31.460Z,101.25
2018-04-29T13:55:31.490Z,106.88
2018-04-29T13:56:31.525Z,112.50
2018-04-29T13:57:31.587Z,213.75
2018-04-29T13:58:31.564Z,213.75
2018-04-29T13:59:31.587Z,118.13
2018-04-29T14:00:31.605Z,163.13
2018-04-29T14:01:31.635Z,106.88
2018-04-29T14:02:31.657Z,95.63
2018-04-29T14:03:31.788Z,101.25
2018-04-29T14:04:31.702Z,106.88
2018-04-29T14:05:31.731Z,112.50
2018-04-29T14:06:31.751Z,157.50
2018-04-29T14:07:31.778Z,140.63
2018-04-29T14:08:31.799Z,168.75
2018-04-29T14:09:31.830Z,140.63
2018-04-29T14:10:31.870Z,146.25
2018-04-29T14:11:31.871Z,151.88
2018-04-29T14:12:31.915Z,163.13
2018-04-29T14:13:31.923Z,225.00
2018-04-29T14:14:31.942Z,196.88
2018-04-29T14:15:31.975Z,196.88
2018-04-29T14:16:31.993Z,196.88
2018-04-29T14:17:32.028Z,230.63
2018-04-29T14:18:32.047Z,180.00
2018-04-29T14:19:32.073Z,174.38
2018-04-29T14:20:32.089Z,163.13
2018-04-29T14:21:32.111Z,151.88
2018-04-29T14:22:32.136Z,151.88
2018-04-29T14:23:32.167Z,151.88
2018-04-29T14:24:32.185Z,157.50
2018-04-29T14:25:32.219Z,151.88
2018-04-29T14:26:32.236Z,140.63
2018-04-29T14:27:32.258Z,123.75
2018-04-29T14:28:32.284Z,129.38
2018-04-29T14:29:32.312Z,135.00
2018-04-29T14:30:32.336Z,112.50
2018-04-29T14:31:32.360Z,140.63
2018-04-29T14:32:32.391Z,101.25
2018-04-29T14:33:32.409Z,106.88
2018-04-29T14:34:32.489Z,95.63
2018-04-29T14:35:32.457Z,90.00
2018-04-29T14:36:32.538Z,84.38
2018-04-29T14:37:32.507Z,78.75
2018-04-29T14:38:32.539Z,84.38
2018-04-29T14:39:32.560Z,90.00
2018-04-29T14:40:32.593Z,106.88
2018-04-29T14:41:32.607Z,123.75
2018-04-29T14:42:32.633Z,118.13
2018-04-29T14:43:32.658Z,129.38
2018-04-29T14:44:32.684Z,140.63
2018-04-29T14:45:32.716Z,157.50
2018-04-29T14:46:32.735Z,168.75
2018-04-29T14:47:32.757Z,168.75
2018-04-29T14:48:32.780Z,213.75
2018-04-29T14:49:32.885Z,208.13
2018-04-29T14:50:32.833Z,270.00
2018-04-29T14:51:32.857Z,275.63
2018-04-29T14:52:32.885Z,292.50
2018-04-29T14:53:32.904Z,275.63
2018-04-29T14:54:32.934Z,292.50
2018-04-29T14:55:32.965Z,292.50
2018-04-29T14:56:32.979Z,275.63
2018-04-29T14:57:33.010Z,219.38
2018-04-29T14:58:33.032Z,196.88
2018-04-29T14:59:33.056Z,191.25
2018-04-29T15:00:33.082Z,180.00
2018-04-29T15:01:33.110Z,174.38
2018-04-29T15:02:33.132Z,168.75
2018-04-29T15:03:33.158Z,163.13
2018-04-29T15:04:33.182Z,163.13
2018-04-29T15:05:33.212Z,151.88
2018-04-29T15:06:33.232Z,146.25
2018-04-29T15:07:33.261Z,140.63
2018-04-29T15:08:33.288Z,140.63
2018-04-29T15:09:33.313Z,123.75
2018-04-29T15:10:33.378Z,112.50
2018-04-29T15:11:33.363Z,106.88
2018-04-29T15:12:33.397Z,106.88
2018-04-29T15:13:33.413Z,101.25
2018-04-29T15:14:33.438Z,95.63
2018-04-29T15:15:33.469Z,84.38
2018-04-29T15:16:33.485Z,73.13
2018-04-29T15:17:33.514Z,67.50
2018-04-29T15:18:33.542Z,73.13
2018-04-29T15:19:33.562Z,73.13
2018-04-29T15:20:33.588Z,84.38
2018-04-29T15:21:33.617Z,90.00
2018-04-29T15:22:33.643Z,95.63
2018-04-29T15:23:33.677Z,101.25
2018-04-29T15:24:33.686Z,101.25
2018-04-29T15:25:33.710Z,101.25
2018-04-29T15:26:33.737Z,101.25
2018-04-29T15:27:33.762Z,101.25
2018-04-29T15:28:33.788Z,101.25
2018-04-29T15:29:33.809Z,101.25
2018-04-29T15:30:33.852Z,101.25
2018-04-29T15:31:33.864Z,95.63
2018-04-29T15:32:33.891Z,95.63
2018-04-29T15:33:33.909Z,101.25
2018-04-29T15:34:33.936Z,106.88
2018-04-29T15:35:33.964Z,112.50
2018-04-29T15:36:33.983Z,118.13
2018-04-29T15:37:34.012Z,123.75
2018-04-29T15:38:34.041Z,123.75
2018-04-29T15:39:34.062Z,123.75
2018-04-29T15:40:34.126Z,123.75
2018-04-29T15:41:34.110Z,129.38
2018-04-29T15:42:34.135Z,129.38
2018-04-29T15:43:34.158Z,129.38
2018-04-29T15:44:34.183Z,123.75
2018-04-29T15:45:34.207Z,123.75
2018-04-29T15:46:34.301Z,123.75
2018-04-29T15:47:34.261Z,118.13
2018-04-29T15:48:34.278Z,118.13
2018-04-29T15:49:34.306Z,118.13
2018-04-29T15:50:34.337Z,118.13
2018-04-29T15:51:34.358Z,118.13
2018-04-29T15:52:34.379Z,123.75
2018-04-29T15:53:34.408Z,123.75
2018-04-29T15:54:34.434Z,123.75
2018-04-29T15:55:34.458Z,118.13
2018-04-29T15:56:34.477Z,112.50
2018-04-29T15:57:34.504Z,112.50
2018-04-29T15:58:34.530Z,112.50
2018-04-29T15:59:34.561Z,112.50
2018-04-29T16:00:34.583Z,112.50
2018-04-29T16:01:34.607Z,106.88
2018-04-29T16:02:34.627Z,106.88
2018-04-29T16:03:34.713Z,106.88
2018-04-29T16:04:34.679Z,123.75
2018-04-29T16:05:34.709Z,118.13
2018-04-29T16:06:34.728Z,129.38
2018-04-29T16:07:34.754Z,140.63
2018-04-29T16:08:34.777Z,146.25
2018-04-29T16:09:34.802Z,140.63
2018-04-29T16:10:34.831Z,135.00
2018-04-29T16:11:34.856Z,129.38
2018-04-29T16:12:34.877Z,129.38
2018-04-29T16:13:34.904Z,129.38
2018-04-29T16:14:34.932Z,118.13
2018-04-29T16:15:34.956Z,118.13
2018-04-29T16:16:34.978Z,135.00
2018-04-29T16:17:35.015Z,135.00
2018-04-29T16:18:35.026Z,135.00
2018-04-29T16:19:35.052Z,140.63
2018-04-29T16:20:35.079Z,146.25
2018-04-29T16:21:35.109Z,135.00
2018-04-29T16:22:35.135Z,129.38
2018-04-29T16:23:35.154Z,146.25
2018-04-29T16:24:35.178Z,140.63
2018-04-29T16:25:35.202Z,151.88
2018-04-29T16:26:35.228Z,140.63
2018-04-29T16:27:35.256Z,140.63
2018-04-29T16:28:35.280Z,123.75
2018-04-29T16:29:35.304Z,123.75
2018-04-29T16:30:35.338Z,129.38
2018-04-29T16:31:35.365Z,118.13
2018-04-29T16:32:35.378Z,112.50
2018-04-29T16:33:35.406Z,112.50
2018-04-29T16:34:35.443Z,118.13
2018-04-29T16:35:35.455Z,118.13
2018-04-29T16:36:35.485Z,112.50
2018-04-29T16:37:35.508Z,106.88
2018-04-29T16:38:35.538Z,106.88
2018-04-29T16:39:35.563Z,123.75
2018-04-29T16:40:35.584Z,112.50
2018-04-29T16:41:35.605Z,112.50
2018-04-29T16:42:35.631Z,112.50
2018-04-29T16:43:35.710Z,118.13
2018-04-29T16:44:35.688Z,123.75
2018-04-29T16:45:35.709Z,118.13
2018-04-29T16:46:35.731Z,112.50
2018-04-29T16:47:35.760Z,112.50
2018-04-29T16:48:35.791Z,101.25
2018-04-29T16:49:35.808Z,95.63
2018-04-29T16:50:35.837Z,90.00
2018-04-29T16:51:35.866Z,84.38
2018-04-29T16:52:35.897Z,84.38
2018-04-29T16:53:35.909Z,78.75
2018-04-29T16:54:35.939Z,73.13
2018-04-29T16:55:35.973Z,78.75
2018-04-29T16:56:35.986Z,73.13
2018-04-29T16:57:36.012Z,73.13
2018-04-29T16:58:36.040Z,67.50
2018-04-29T16:59:36.063Z,67.50
2018-04-29T17:00:36.089Z,67.50
2018-04-29T17:01:36.119Z,61.88
2018-04-29T17:02:36.138Z,56.25
2018-04-29T17:03:36.162Z,50.63
2018-04-29T17:04:36.190Z,45.00
2018-04-29T17:05:36.219Z,45.00
2018-04-29T17:06:36.237Z,39.38
2018-04-29T17:07:36.263Z,39.38
2018-04-29T17:08:36.287Z,39.38
2018-04-29T17:09:36.314Z,39.38
2018-04-29T17:10:36.338Z,39.38
2018-04-29T17:11:36.363Z,39.38
2018-04-29T17:12:36.395Z,39.38
2018-04-29T17:13:36.415Z,39.38
2018-04-29T17:14:36.440Z,39.38
2018-04-29T17:15:37.786Z,39.38
2018-04-29T17:16:37.604Z,45.00
2018-04-29T17:17:37.597Z,45.00
2018-04-29T17:18:36.570Z,45.00
2018-04-29T17:19:37.792Z,45.00
2018-04-29T17:20:36.624Z,45.00
2018-04-29T17:21:36.629Z,45.00
2018-04-29T17:22:36.702Z,45.00
2018-04-29T17:23:36.724Z,39.38
2018-04-29T17:24:37.296Z,39.38
2018-04-29T17:25:39.386Z,33.75
2018-04-29T17:26:36.765Z,33.75
2018-04-29T17:27:36.774Z,33.75
2018-04-29T17:28:36.810Z,33.75
2018-04-29T17:29:37.794Z,28.13
2018-04-29T17:30:37.371Z,28.13
2018-04-29T17:31:38.799Z,28.13
2018-04-29T17:32:36.936Z,28.13
2018-04-29T17:33:36.917Z,28.13
2018-04-29T17:34:36.956Z,22.50
2018-04-29T17:35:36.998Z,22.50
2018-04-29T17:36:37.005Z,16.88
2018-04-29T17:37:37.014Z,16.88
2018-04-29T17:38:37.051Z,16.88
2018-04-29T17:39:38.296Z,16.88
2018-04-29T17:40:38.797Z,16.88
2018-04-29T17:41:37.800Z,16.88
2018-04-29T17:42:37.898Z,16.88
2018-04-29T17:43:37.906Z,16.88
2018-04-29T17:44:37.195Z,16.88
2018-04-29T17:45:37.232Z,16.88
2018-04-29T17:46:37.236Z,16.88